createdAt,value
2018-11-20T00:00:49.777Z,23.8
2018-11-20T00:02:49.777Z,23.1
2018-11-20T00:04:50.131Z,22.5
2018-11-20T00:06:50.341Z,21.3
2018-11-20T00:08:50.060Z,21.3
2018-11-20T00:10:50.145Z,22.7
2018-11-20T00:12:50.177Z,23.2
2018-11-20T00:14:49.745Z,23.9
2018-11-20T00:16:49.933Z,23.5
2018-11-20T00:18:49.911Z,23.5
2018-11-20T00:20:49.895Z,24.1
2018-11-20T00:22:49.903Z,24.1
2018-11-20T00:24:49.950Z,23.7
2018-11-20T00:26:50.244Z,23.2
2018-11-20T00:28:49.892Z,23.2
2018-11-20T00:30:49.868Z,22.8
2018-11-20T00:32:49.587Z,22.8
2018-11-20T00:34:50.117Z,23.5
2018-11-20T00:36:49.975Z,23.5
2018-11-20T00:38:50.050Z,23.5
2018-11-20T00:40:50.053Z,21.0
2018-11-20T00:42:50.102Z,23.3
2018-11-20T00:44:50.386Z,23.7
2018-11-20T00:46:49.688Z,24.3
2018-11-20T00:48:49.782Z,23.7
2018-11-20T00:50:49.811Z,23.7
2018-11-20T00:52:49.949Z,23.8
2018-11-20T00:54:50.016Z,23.3
2018-11-20T00:56:50.241Z,24.6
2018-11-20T00:58:50.166Z,24.6
2018-11-20T01:00:50.163Z,23.2
2018-11-20T01:02:49.802Z,23.2
2018-11-20T01:04:49.980Z,24.1
2018-11-20T01:06:50.064Z,23.0
2018-11-20T01:08:49.836Z,23.0
2018-11-20T01:10:49.690Z,23.8
2018-11-20T01:12:49.672Z,22.9
2018-11-20T01:14:49.588Z,23.4
2018-11-20T01:16:49.896Z,23.4
2018-11-20T01:18:49.744Z,24.3
2018-11-20T01:20:50.238Z,23.7
2018-11-20T01:22:50.233Z,23.7
2018-11-20T01:24:50.166Z,23.5
2018-11-20T01:26:50.365Z,23.5
2018-11-20T01:28:50.194Z,23.7
2018-11-20T01:30:50.039Z,23.7
2018-11-20T01:32:49.876Z,24.6
2018-11-20T01:34:50.157Z,24.6
2018-11-20T01:36:50.219Z,24.4
2018-11-20T01:38:50.059Z,23.7
2018-11-20T01:40:49.871Z,22.8
2018-11-20T01:42:49.826Z,23.4
2018-11-20T01:44:50.318Z,23.4
2018-11-20T01:46:50.525Z,24.0
2018-11-20T01:48:50.277Z,24.0
2018-11-20T01:50:50.148Z,23.4
2018-11-20T01:52:49.902Z,23.4
2018-11-20T01:54:49.757Z,24.0
2018-11-20T01:56:49.837Z,23.1
2018-11-20T01:58:49.656Z,24.4
2018-11-20T02:00:50.497Z,23.0
2018-11-20T02:02:50.313Z,23.0
2018-11-20T02:04:49.551Z,24.3
2018-11-20T02:06:49.552Z,23.4
2018-11-20T02:08:50.337Z,24.0
2018-11-20T02:10:50.190Z,23.4
2018-11-20T02:12:50.090Z,24.2
2018-11-20T02:14:49.964Z,23.3
2018-11-20T02:16:50.168Z,23.3
2018-11-20T02:18:50.047Z,23.3
2018-11-20T02:20:49.946Z,24.6
2018-11-20T02:22:49.945Z,22.5
2018-11-20T02:24:49.895Z,22.5
2018-11-20T02:26:50.015Z,23.3
2018-11-20T02:28:49.889Z,23.1
2018-11-20T02:30:49.838Z,23.5
2018-11-20T02:32:49.680Z,23.5
2018-11-20T02:34:49.998Z,24.4
2018-11-20T02:36:49.903Z,23.9
2018-11-20T02:38:50.029Z,25.1
2018-11-20T02:40:49.848Z,23.5
2018-11-20T02:42:49.697Z,23.5
2018-11-20T02:44:49.622Z,23.6
2018-11-20T02:46:49.679Z,23.0
2018-11-20T02:48:49.573Z,24.2
2018-11-20T02:50:50.333Z,25.1
2018-11-20T02:52:50.276Z,25.1
2018-11-20T02:54:50.075Z,23.8
2018-11-20T02:56:50.069Z,24.4
2018-11-20T02:58:49.868Z,24.5
2018-11-20T03:00:49.681Z,24.5
2018-11-20T03:02:49.592Z,22.7
2018-11-20T03:04:49.880Z,22.7
2018-11-20T03:06:49.930Z,23.6
2018-11-20T03:08:49.671Z,23.6
2018-11-20T03:10:49.541Z,24.3
2018-11-20T03:12:50.386Z,24.0
2018-11-20T03:14:49.913Z,24.0
2018-11-20T03:16:50.007Z,25.5
2018-11-20T03:18:49.801Z,24.1
2018-11-20T03:20:49.685Z,24.1
2018-11-20T03:22:50.449Z,23.4
2018-11-20T03:24:50.322Z,24.1
2018-11-20T03:26:50.522Z,24.9
2018-11-20T03:28:50.443Z,24.3
2018-11-20T03:30:50.226Z,24.3
2018-11-20T03:32:50.134Z,23.0
2018-11-20T03:34:50.199Z,23.0
2018-11-20T03:36:50.148Z,24.1
2018-11-20T03:38:49.926Z,24.5
2018-11-20T03:40:49.902Z,24.5
2018-11-20T03:42:49.802Z,23.3
2018-11-20T03:44:49.815Z,23.7
2018-11-20T03:46:49.987Z,23.2
2018-11-20T03:48:50.008Z,24.0
2018-11-20T03:50:49.980Z,24.0
2018-11-20T03:52:49.938Z,23.2
2018-11-20T03:54:50.093Z,23.9
2018-11-20T03:56:50.241Z,24.8
2018-11-20T03:58:50.234Z,24.8
2018-11-20T04:00:50.314Z,24.3
2018-11-20T04:02:50.410Z,24.4
2018-11-20T04:04:49.805Z,26.2
2018-11-20T04:06:50.277Z,25.4
2018-11-20T04:08:49.956Z,25.4
2018-11-20T04:10:49.949Z,24.8
2018-11-20T04:12:50.180Z,24.5
2018-11-20T04:14:49.798Z,26.5
2018-11-20T04:16:49.983Z,26.2
2018-11-20T04:18:50.012Z,26.2
2018-11-20T04:20:49.977Z,26.5
2018-11-20T04:22:50.317Z,25.6
2018-11-20T04:24:50.294Z,25.5
2018-11-20T04:26:50.299Z,25.5
2018-11-20T04:28:50.263Z,25.7
2018-11-20T04:30:50.217Z,26.1
2018-11-20T04:32:50.403Z,25.7
2018-11-20T04:34:50.441Z,26.1
2018-11-20T04:36:49.689Z,25.3
2018-11-20T04:38:50.399Z,25.3
2018-11-20T04:40:50.458Z,26.0
2018-11-20T04:42:50.483Z,25.5
2018-11-20T04:44:50.405Z,26.2
2018-11-20T04:46:49.675Z,26.7
2018-11-20T04:48:50.326Z,26.7
2018-11-20T04:50:50.338Z,26.4
2018-11-20T04:52:50.341Z,25.8
2018-11-20T04:54:50.286Z,25.9
2018-11-20T04:56:50.461Z,26.9
2018-11-20T04:58:50.305Z,26.9
2018-11-20T05:00:49.971Z,26.9
2018-11-20T05:02:49.843Z,27.2
2018-11-20T05:04:50.073Z,27.2
2018-11-20T05:06:50.637Z,27.5
2018-11-20T05:08:50.453Z,25.0
2018-11-20T05:10:50.088Z,27.3
2018-11-20T05:12:50.029Z,26.2
2018-11-20T05:14:50.147Z,26.5
2018-11-20T05:16:50.080Z,26.5
2018-11-20T05:18:50.093Z,25.3
2018-11-20T05:20:50.186Z,26.1
2018-11-20T05:22:50.166Z,25.8
2018-11-20T05:24:50.482Z,26.7
2018-11-20T05:26:50.354Z,26.7
2018-11-20T05:28:50.315Z,26.7
2018-11-20T05:30:50.207Z,26.5
2018-11-20T05:32:49.554Z,25.7
2018-11-20T05:34:50.328Z,25.7
2018-11-20T05:36:49.532Z,25.7
2018-11-20T05:38:50.359Z,27.1
2018-11-20T05:40:50.396Z,25.4
2018-11-20T05:42:50.015Z,25.6
2018-11-20T05:44:50.181Z,25.6
2018-11-20T05:46:50.528Z,25.4
2018-11-20T05:48:50.077Z,25.3
2018-11-20T05:50:49.748Z,24.6
2018-11-20T05:52:49.537Z,24.5
2018-11-20T05:54:50.184Z,26.0
2018-11-20T05:56:50.280Z,26.0
2018-11-20T05:58:50.306Z,25.9
2018-11-20T06:00:50.303Z,25.9
2018-11-20T06:02:50.181Z,24.7
2018-11-20T06:04:50.242Z,25.5
2018-11-20T06:06:49.549Z,25.5
2018-11-20T06:08:50.207Z,29.9
2018-11-20T06:10:50.243Z,25.6
2018-11-20T06:12:50.556Z,25.6
2018-11-20T06:14:50.496Z,24.8
2018-11-20T06:16:49.800Z,24.0
2018-11-20T06:18:50.630Z,24.6
2018-11-20T06:20:50.013Z,26.2
2018-11-20T06:22:50.034Z,26.2
2018-11-20T06:24:50.276Z,23.4
2018-11-20T06:26:50.520Z,23.3
2018-11-20T06:28:50.866Z,24.4
2018-11-20T06:30:50.436Z,22.9
2018-11-20T06:32:50.175Z,23.2
2018-11-20T06:34:50.388Z,23.2
2018-11-20T06:36:49.688Z,23.3
2018-11-20T06:38:49.715Z,22.5
2018-11-20T06:40:49.672Z,22.9
2018-11-20T06:42:49.656Z,23.0
2018-11-20T06:44:49.660Z,23.0
2018-11-20T06:46:49.742Z,23.1
2018-11-20T06:48:49.792Z,22.7
2018-11-20T06:50:50.307Z,22.3
2018-11-20T06:52:50.470Z,22.3
2018-11-20T06:54:49.925Z,22.3
2018-11-20T06:56:50.154Z,20.5
2018-11-20T06:58:50.139Z,23.9
2018-11-20T07:00:50.200Z,22.0
2018-11-20T07:02:50.099Z,22.0
2018-11-20T07:04:50.519Z,21.0
2018-11-20T07:06:49.619Z,19.5
2018-11-20T07:08:50.819Z,19.9
2018-11-20T07:10:49.525Z,19.9
2018-11-20T07:12:49.664Z,21.3
2018-11-20T07:14:49.717Z,21.8
2018-11-20T07:16:49.981Z,19.2
2018-11-20T07:18:49.946Z,19.2
2018-11-20T07:20:49.667Z,19.9
2018-11-20T07:22:50.173Z,19.6
2018-11-20T07:24:50.367Z,19.7
2018-11-20T07:26:49.906Z,17.7
2018-11-20T07:28:49.605Z,20.2
2018-11-20T07:30:49.971Z,20.2
2018-11-20T07:32:49.838Z,18.8
2018-11-20T07:34:50.197Z,17.3
2018-11-20T07:36:50.171Z,17.3
2018-11-20T07:38:50.161Z,18.2
2018-11-20T07:40:50.243Z,18.2
2018-11-20T07:42:50.195Z,17.1
2018-11-20T07:44:49.661Z,17.4
2018-11-20T07:46:49.956Z,17.4
2018-11-20T07:48:49.933Z,19.4
2018-11-20T07:50:50.118Z,18.8
2018-11-20T07:52:50.111Z,18.6
2018-11-20T07:54:50.178Z,17.7
2018-11-20T07:56:50.345Z,18.5
2018-11-20T07:58:49.992Z,19.9
2018-11-20T08:00:50.032Z,17.7
2018-11-20T08:02:50.068Z,17.7
2018-11-20T08:04:49.550Z,20.1
2018-11-20T08:06:49.778Z,18.2
2018-11-20T08:08:50.401Z,17.7
2018-11-20T08:10:50.518Z,17.7
2018-11-20T08:12:49.677Z,18.2
2018-11-20T08:14:50.268Z,19.3
2018-11-20T08:16:49.753Z,19.5
2018-11-20T08:18:50.235Z,19.5
2018-11-20T08:20:49.663Z,18.3
2018-11-20T08:22:49.625Z,19.2
2018-11-20T08:24:49.808Z,19.2
2018-11-20T08:26:50.323Z,19.2
2018-11-20T08:28:50.544Z,19.2
2018-11-20T08:30:49.875Z,19.6
2018-11-20T08:32:50.487Z,20.5
2018-11-20T08:34:49.788Z,20.5
2018-11-20T08:36:50.464Z,21.0
2018-11-20T08:38:50.500Z,21.1
2018-11-20T08:40:50.145Z,20.4
2018-11-20T08:42:50.057Z,21.7
2018-11-20T08:44:49.773Z,21.7
2018-11-20T08:46:49.883Z,21.7
2018-11-20T08:48:49.841Z,21.2
2018-11-20T08:50:49.602Z,22.1
2018-11-20T08:52:49.715Z,22.4
2018-11-20T08:54:49.903Z,22.4
2018-11-20T08:56:50.122Z,22.6
2018-11-20T08:58:49.941Z,22.6
2018-11-20T09:00:49.938Z,22.7
2018-11-20T09:02:50.702Z,23.3
2018-11-20T09:04:49.959Z,23.5
2018-11-20T09:06:50.042Z,24.5
2018-11-20T09:08:49.818Z,24.5
2018-11-20T09:10:50.026Z,27.9
2018-11-20T09:12:49.880Z,25.8
2018-11-20T09:14:49.819Z,27.8
2018-11-20T09:16:49.795Z,27.8
2018-11-20T09:18:49.618Z,26.8
2018-11-20T09:20:50.422Z,27.6
2018-11-20T09:22:50.166Z,27.9
2018-11-20T09:24:50.144Z,27.4
2018-11-20T09:26:50.420Z,27.4
2018-11-20T09:28:49.529Z,28.2
2018-11-20T09:30:50.065Z,26.5
2018-11-20T09:32:50.164Z,25.2
2018-11-20T09:34:50.579Z,25.2
2018-11-20T09:36:50.121Z,26.1
2018-11-20T09:38:50.476Z,24.7
2018-11-20T09:40:49.705Z,24.0
2018-11-20T09:42:49.752Z,22.9
2018-11-20T09:44:49.774Z,22.9
2018-11-20T09:46:49.999Z,22.9
2018-11-20T09:48:50.300Z,20.6
2018-11-20T09:50:50.271Z,21.5
2018-11-20T09:52:50.618Z,19.7
2018-11-20T09:54:50.298Z,19.7
2018-11-20T09:56:50.418Z,19.5
2018-11-20T09:58:50.521Z,19.5
2018-11-20T10:00:50.224Z,20.0
2018-11-20T10:02:49.655Z,17.6
2018-11-20T10:04:50.203Z,16.6
2018-11-20T10:06:49.657Z,16.6
2018-11-20T10:08:49.604Z,15.0
2018-11-20T10:10:50.254Z,14.7
2018-11-20T10:12:49.569Z,13.3
2018-11-20T10:14:50.068Z,13.3
2018-11-20T10:16:49.927Z,12.9
2018-11-20T10:18:50.147Z,12.9
2018-11-20T10:20:50.465Z,11.2
2018-11-20T10:22:50.084Z,11.8
2018-11-20T10:24:50.075Z,11.8
2018-11-20T10:26:49.828Z,11.3
2018-11-20T10:28:50.428Z,11.1
2018-11-20T10:30:49.698Z,11.2
2018-11-20T10:32:49.859Z,11.2
2018-11-20T10:34:50.485Z,11.2
2018-11-20T10:36:50.021Z,11.1
2018-11-20T10:38:50.270Z,11.2
2018-11-20T10:40:50.403Z,11.2
2018-11-20T10:42:49.552Z,10.6
2018-11-20T10:44:49.810Z,10.4
2018-11-20T10:46:50.201Z,10.9
2018-11-20T10:48:50.480Z,11.2
2018-11-20T10:50:49.723Z,11.2
2018-11-20T10:52:49.820Z,11.9
2018-11-20T10:54:49.848Z,10.8
2018-11-20T10:56:50.183Z,10.8
2018-11-20T10:58:49.817Z,10.9
2018-11-20T11:00:49.923Z,11.2
2018-11-20T11:02:50.135Z,11.2
2018-11-20T11:04:49.887Z,11.8
2018-11-20T11:06:50.471Z,11.0
2018-11-20T11:08:49.867Z,11.0
2018-11-20T11:10:50.158Z,11.5
2018-11-20T11:12:50.335Z,11.5
2018-11-20T11:14:49.785Z,12.1
2018-11-20T11:16:50.366Z,10.9
2018-11-20T11:18:49.690Z,11.9
2018-11-20T11:20:49.792Z,11.9
2018-11-20T11:22:49.588Z,11.4
2018-11-20T11:24:49.801Z,11.0
2018-11-20T11:26:50.177Z,11.0
2018-11-20T11:28:51.641Z,11.3
2018-11-20T11:30:49.918Z,11.4
2018-11-20T11:32:50.004Z,11.4
2018-11-20T11:34:49.780Z,11.0
2018-11-20T11:36:49.808Z,10.8
2018-11-20T11:38:49.967Z,10.8
2018-11-20T11:40:49.763Z,11.0
2018-11-20T11:42:50.013Z,10.8
2018-11-20T11:44:49.696Z,11.5
2018-11-20T11:46:50.101Z,10.9
2018-11-20T11:48:50.300Z,10.4
2018-11-20T11:50:50.108Z,11.2
2018-11-20T11:52:49.799Z,11.2
2018-11-20T11:54:50.133Z,11.6
2018-11-20T11:56:49.779Z,10.9
2018-11-20T11:58:49.878Z,11.3
2018-11-20T12:00:49.806Z,11.3
2018-11-20T12:04:49.991Z,11.2
2018-11-20T12:06:50.242Z,11.3
2018-11-20T12:08:49.947Z,11.4
2018-11-20T12:10:50.439Z,11.4
2018-11-20T12:12:49.670Z,10.9
2018-11-20T12:14:51.712Z,10.7
2018-11-20T12:16:49.891Z,10.4
2018-11-20T12:18:49.951Z,10.4
2018-11-20T12:20:49.753Z,11.3
2018-11-20T12:22:49.831Z,13.7
2018-11-20T12:24:50.427Z,10.9
2018-11-20T12:26:49.665Z,11.3
2018-11-20T12:28:53.318Z,11.7
2018-11-20T12:30:53.559Z,11.7
2018-11-20T12:32:49.891Z,11.0
2018-11-20T12:34:50.293Z,10.3
2018-11-20T12:36:49.710Z,10.3
2018-11-20T12:38:49.886Z,10.3
2018-11-20T12:40:50.976Z,10.0
2018-11-20T12:42:50.011Z,10.9
2018-11-20T12:44:48.832Z,10.9
2018-11-20T12:46:50.997Z,10.1
2018-11-20T12:48:50.120Z,10.5
2018-11-20T12:50:50.315Z,10.5
2018-11-20T12:52:50.468Z,10.7
2018-11-20T12:54:52.536Z,10.7
2018-11-20T12:56:49.961Z,10.8
2018-11-20T12:58:49.627Z,10.8
2018-11-20T13:00:49.766Z,10.4
2018-11-20T13:02:50.176Z,10.6
2018-11-20T13:04:50.362Z,10.9
2018-11-20T13:06:50.375Z,10.4
2018-11-20T13:08:49.525Z,10.4
2018-11-20T13:10:50.364Z,11.5
2018-11-20T13:12:50.466Z,12.2
2018-11-20T13:14:49.648Z,11.5
2018-11-20T13:16:49.779Z,11.5
2018-11-20T13:18:54.526Z,12.0
2018-11-20T13:20:52.465Z,11.9
2018-11-20T13:22:50.475Z,12.5
2018-11-20T13:24:50.365Z,12.9
2018-11-20T13:26:49.541Z,12.9
2018-11-20T13:28:49.696Z,12.9
2018-11-20T13:30:50.427Z,12.0
2018-11-20T13:32:49.529Z,12.6
2018-11-20T13:34:50.406Z,12.6
2018-11-20T13:36:49.717Z,13.3
2018-11-20T13:38:51.700Z,13.3
2018-11-20T13:40:52.102Z,13.5
2018-11-20T13:42:51.958Z,13.4
2018-11-20T13:44:52.084Z,13.4
2018-11-20T13:46:49.647Z,12.7
2018-11-20T13:48:49.776Z,13.2
2018-11-20T13:50:51.595Z,13.5
2018-11-20T13:52:52.119Z,13.7
2018-11-20T13:54:49.808Z,13.7
2018-11-20T13:56:50.221Z,14.2
2018-11-20T13:58:50.218Z,13.4
2018-11-20T14:00:50.330Z,13.4
2018-11-20T14:02:50.266Z,13.8
2018-11-20T14:04:49.611Z,13.8
2018-11-20T14:06:49.880Z,13.6
2018-11-20T14:08:49.993Z,13.8
2018-11-20T14:10:49.607Z,14.0
2018-11-20T14:12:49.774Z,13.6
2018-11-20T14:14:49.551Z,13.6
2018-11-20T14:16:49.896Z,14.0
2018-11-20T14:18:49.974Z,13.9
2018-11-20T14:20:50.066Z,13.7
2018-11-20T14:22:50.218Z,13.9
2018-11-20T14:24:50.455Z,13.9
2018-11-20T14:26:49.831Z,13.4
2018-11-20T14:28:49.599Z,14.7
2018-11-20T14:30:49.688Z,14.7
2018-11-20T14:32:49.896Z,13.3
2018-11-20T14:34:49.621Z,13.3
2018-11-20T14:36:50.358Z,14.3
2018-11-20T14:38:56.660Z,14.7
2018-11-20T14:40:49.801Z,13.5
2018-11-20T14:42:49.798Z,13.8
2018-11-20T14:44:49.897Z,13.8
2018-11-20T14:46:50.185Z,14.2
2018-11-20T14:48:50.027Z,15.2
2018-11-20T14:50:50.118Z,14.7
2018-11-20T14:52:49.858Z,14.3
2018-11-20T14:54:48.664Z,14.3
2018-11-20T14:56:49.931Z,14.2
2018-11-20T14:58:50.011Z,13.7
2018-11-20T15:00:50.125Z,13.7
2018-11-20T15:02:50.157Z,13.3
2018-11-20T15:04:49.715Z,14.0
2018-11-20T15:06:50.382Z,13.6
2018-11-20T15:08:49.575Z,13.4
2018-11-20T15:10:49.750Z,13.3
2018-11-20T15:12:50.440Z,13.3
2018-11-20T15:14:49.536Z,13.8
2018-11-20T15:16:49.914Z,13.7
2018-11-20T15:18:49.532Z,13.7
2018-11-20T15:20:49.754Z,13.8
2018-11-20T15:22:49.974Z,14.1
2018-11-20T15:24:50.235Z,13.5
2018-11-20T15:26:49.618Z,14.0
2018-11-20T15:28:49.716Z,14.7
2018-11-20T15:30:49.881Z,14.0
2018-11-20T15:32:49.995Z,14.0
2018-11-20T15:34:50.370Z,14.0
2018-11-20T15:36:50.237Z,13.9
2018-11-20T15:38:50.451Z,13.8
2018-11-20T15:40:49.551Z,13.8
2018-11-20T15:42:49.776Z,13.8
2018-11-20T15:44:49.893Z,14.2
2018-11-20T15:46:50.185Z,13.8
2018-11-20T15:48:50.409Z,13.5
2018-11-20T15:50:50.461Z,13.5
2018-11-20T15:52:49.639Z,14.1
2018-11-20T15:54:49.755Z,13.6
2018-11-20T15:56:49.846Z,13.4
2018-11-20T15:58:50.024Z,13.4
2018-11-20T16:00:49.905Z,12.9
2018-11-20T16:02:49.525Z,13.9
2018-11-20T16:04:50.154Z,13.3
2018-11-20T16:06:49.807Z,14.6
2018-11-20T16:08:49.938Z,14.7
2018-11-20T16:10:50.063Z,14.7
2018-11-20T16:12:49.884Z,14.5
2018-11-20T16:14:49.765Z,14.9
2018-11-20T16:16:50.066Z,14.8
2018-11-20T16:18:50.147Z,14.8
2018-11-20T16:20:49.714Z,14.7
2018-11-20T16:22:49.770Z,14.7
2018-11-20T16:24:49.817Z,15.4
2018-11-20T16:26:50.189Z,15.3
2018-11-20T16:28:49.834Z,15.3
2018-11-20T16:30:50.235Z,15.5
2018-11-20T16:32:49.874Z,15.5
2018-11-20T16:34:50.369Z,15.5
2018-11-20T16:36:49.601Z,15.5
2018-11-20T16:38:50.055Z,15.4
2018-11-20T16:40:50.034Z,16.1
2018-11-20T16:42:49.801Z,16.1
2018-11-20T16:44:49.725Z,16.1
2018-11-20T16:46:50.073Z,16.8
2018-11-20T16:48:49.807Z,16.8
2018-11-20T16:50:49.822Z,17.4
2018-11-20T16:52:49.703Z,17.2
2018-11-20T16:54:49.726Z,17.7
2018-11-20T16:56:49.599Z,17.7
2018-11-20T16:58:49.592Z,18.3
2018-11-20T17:00:49.674Z,18.4
2018-11-20T17:02:49.723Z,18.0
2018-11-20T17:04:49.940Z,18.7
2018-11-20T17:06:50.088Z,19.4
2018-11-20T17:08:50.056Z,19.4
2018-11-20T17:10:50.075Z,19.4
2018-11-20T17:12:50.130Z,20.3
2018-11-20T17:14:49.959Z,19.9
2018-11-20T17:16:49.986Z,19.9
2018-11-20T17:18:49.793Z,20.5
2018-11-20T17:20:49.630Z,21.0
2018-11-20T17:22:50.503Z,20.8
2018-11-20T17:24:50.340Z,20.8
2018-11-20T17:26:50.497Z,22.0
2018-11-20T17:28:50.269Z,21.5
2018-11-20T17:30:50.024Z,21.1
2018-11-20T17:32:49.806Z,21.3
2018-11-20T17:34:50.164Z,21.3
2018-11-20T17:36:50.245Z,20.8
2018-11-20T17:38:50.077Z,21.1
2018-11-20T17:40:49.833Z,22.5
2018-11-20T17:42:49.781Z,22.5
2018-11-20T17:44:53.729Z,22.9
2018-11-20T17:46:49.835Z,22.9
2018-11-20T17:48:49.607Z,24.0
2018-11-20T17:50:50.468Z,23.6
2018-11-20T17:52:50.275Z,25.7
2018-11-20T17:54:50.088Z,25.7
2018-11-20T17:56:50.104Z,25.7
2018-11-20T17:58:49.854Z,25.0
2018-11-20T18:00:49.722Z,26.6
2018-11-20T18:02:49.685Z,27.2
2018-11-20T18:04:49.788Z,27.2
2018-11-20T18:06:50.010Z,25.1
2018-11-20T18:08:49.805Z,25.6
2018-11-20T18:10:49.717Z,25.6
2018-11-20T18:12:50.510Z,26.4
2018-11-20T18:14:50.279Z,26.4
2018-11-20T18:16:50.292Z,25.9
2018-11-20T18:18:50.082Z,26.1
2018-11-20T18:20:49.904Z,27.4
2018-11-20T18:22:49.789Z,27.6
2018-11-20T18:24:49.684Z,27.6
2018-11-20T18:26:49.735Z,27.8
2018-11-20T18:28:49.767Z,27.7
2018-11-20T18:30:49.749Z,27.8
2018-11-20T18:32:53.082Z,27.4
2018-11-20T18:34:50.093Z,27.4
2018-11-20T18:36:50.019Z,27.5
2018-11-20T18:38:49.966Z,28.5
2018-11-20T18:40:49.759Z,28.5
2018-11-20T18:42:49.555Z,27.8
2018-11-20T18:44:50.366Z,28.1
2018-11-20T18:46:50.348Z,28.5
2018-11-20T18:48:50.196Z,28.1
2018-11-20T18:50:49.711Z,28.9
2018-11-20T18:52:49.652Z,30.7
2018-11-20T18:54:50.519Z,30.7
2018-11-20T18:56:49.562Z,29.6
2018-11-20T18:58:50.399Z,29.2
2018-11-20T19:00:50.161Z,29.2
2018-11-20T19:02:50.056Z,29.2
2018-11-20T19:04:50.169Z,30.0
2018-11-20T19:06:50.125Z,29.2
2018-11-20T19:08:50.422Z,32.3
2018-11-20T19:10:50.319Z,32.3
2018-11-20T19:12:50.162Z,32.7
2018-11-20T19:14:49.970Z,32.9
2018-11-20T19:16:50.011Z,32.4
2018-11-20T19:18:49.817Z,32.4
2018-11-20T19:20:50.396Z,33.6
2018-11-20T19:22:50.330Z,33.6
2018-11-20T19:24:50.124Z,34.1
2018-11-20T19:26:50.030Z,33.1
2018-11-20T19:28:49.870Z,33.1
2018-11-20T19:30:49.834Z,33.0
2018-11-20T19:32:49.701Z,33.1
2018-11-20T19:34:49.976Z,34.4
2018-11-20T19:36:49.992Z,32.9
2018-11-20T19:38:49.828Z,32.9
2018-11-20T19:40:49.673Z,33.5
2018-11-20T19:42:49.530Z,32.4
2018-11-20T19:44:50.057Z,33.3
2018-11-20T19:46:50.194Z,32.4
2018-11-20T19:48:50.179Z,32.0
2018-11-20T19:50:50.069Z,31.6
2018-11-20T19:52:49.975Z,31.6
2018-11-20T19:54:49.783Z,32.3
2018-11-20T19:56:49.761Z,31.3
2018-11-20T19:58:49.670Z,31.2
2018-11-20T20:00:50.474Z,31.2
2018-11-20T20:02:50.338Z,31.2
2018-11-20T20:04:49.639Z,32.0
2018-11-20T20:06:49.698Z,30.7
2018-11-20T20:08:49.530Z,31.0
2018-11-20T20:10:50.422Z,31.0
2018-11-20T20:12:50.286Z,31.5
2018-11-20T20:14:50.089Z,31.5
2018-11-20T20:16:50.264Z,30.5
2018-11-20T20:18:50.053Z,30.8
2018-11-20T20:20:49.569Z,30.8
2018-11-20T20:22:50.515Z,31.2
2018-11-20T20:24:50.362Z,30.6
2018-11-20T20:26:50.333Z,29.2
2018-11-20T20:28:50.191Z,29.2
2018-11-20T20:30:50.044Z,31.7
2018-11-20T20:32:49.844Z,31.0
2018-11-20T20:34:50.100Z,30.6
2018-11-20T20:36:50.149Z,30.6
2018-11-20T20:38:49.634Z,31.6
2018-11-20T20:40:50.468Z,31.8
2018-11-20T20:42:50.390Z,29.3
2018-11-20T20:44:50.154Z,30.6
2018-11-20T20:46:50.204Z,31.3
2018-11-20T20:48:50.154Z,31.3
2018-11-20T20:50:49.939Z,30.5
2018-11-20T20:52:49.744Z,31.5
2018-11-20T20:54:49.533Z,31.8
2018-11-20T20:56:49.572Z,32.2
2018-11-20T20:58:50.463Z,32.2
2018-11-20T21:00:50.578Z,33.1
2018-11-20T21:02:50.457Z,32.6
2018-11-20T21:04:49.691Z,32.6
2018-11-20T21:06:50.721Z,32.2
2018-11-20T21:08:49.531Z,32.2
2018-11-20T21:10:50.425Z,32.3
2018-11-20T21:12:50.220Z,31.8
2018-11-20T21:14:50.099Z,32.5
2018-11-20T21:16:50.070Z,32.5
2018-11-20T21:18:49.884Z,33.5
2018-11-20T21:20:49.746Z,34.5
2018-11-20T21:22:49.539Z,34.3
2018-11-20T21:24:50.404Z,34.5
2018-11-20T21:26:50.351Z,34.5
2018-11-20T21:28:50.086Z,34.6
2018-11-20T21:30:49.928Z,34.5
2018-11-20T21:32:49.795Z,35.8
2018-11-20T21:34:55.404Z,35.8
2018-11-20T21:36:50.486Z,34.7
2018-11-20T21:38:50.288Z,33.4
2018-11-20T21:40:50.162Z,35.0
2018-11-20T21:42:50.095Z,34.2
2018-11-20T21:44:49.977Z,34.2
2018-11-20T21:46:50.084Z,35.5
2018-11-20T21:48:49.902Z,35.2
2018-11-20T21:50:49.679Z,35.7
2018-11-20T21:52:49.555Z,35.7
2018-11-20T21:54:50.456Z,34.8
2018-11-20T21:56:50.415Z,34.8
2018-11-20T21:58:50.318Z,35.4
2018-11-20T22:00:50.122Z,35.7
2018-11-20T22:02:49.952Z,34.6
2018-11-20T22:04:50.092Z,34.6
2018-11-20T22:06:50.155Z,34.3
2018-11-20T22:08:49.935Z,35.7
2018-11-20T22:10:49.694Z,36.5
2018-11-20T22:12:49.573Z,36.3
2018-11-20T22:14:50.331Z,36.3
2018-11-20T22:16:50.382Z,36.1
2018-11-20T22:18:50.161Z,34.8
2018-11-20T22:20:50.096Z,36.7
2018-11-20T22:22:49.978Z,35.9
2018-11-20T22:24:49.772Z,35.9
2018-11-20T22:26:49.931Z,35.0
2018-11-20T22:28:49.791Z,35.0
2018-11-20T22:30:49.662Z,36.0
2018-11-20T22:32:49.528Z,35.0
2018-11-20T22:34:49.735Z,35.0
2018-11-20T22:36:49.759Z,36.2
2018-11-20T22:38:49.613Z,36.2
2018-11-20T22:40:50.494Z,33.1
2018-11-20T22:42:50.273Z,36.4
2018-11-20T22:44:50.075Z,36.4
2018-11-20T22:46:50.028Z,34.5
2018-11-20T22:48:49.766Z,34.4
2018-11-20T22:50:49.549Z,34.8
2018-11-20T22:52:50.348Z,34.8
2018-11-20T22:54:50.181Z,34.1
2018-11-20T22:56:50.252Z,35.4
2018-11-20T22:58:50.059Z,34.9
2018-11-20T23:00:49.853Z,34.9
2018-11-20T23:02:49.717Z,35.2
2018-11-20T23:04:49.840Z,35.1
2018-11-20T23:06:50.281Z,35.8
2018-11-20T23:08:50.089Z,38.0
2018-11-20T23:10:49.947Z,38.0
2018-11-20T23:12:49.740Z,36.7
2018-11-20T23:14:49.572Z,36.3
2018-11-20T23:16:49.527Z,36.8
2018-11-20T23:18:50.399Z,35.5
2018-11-20T23:20:50.193Z,36.4
2018-11-20T23:22:49.993Z,36.4
2018-11-20T23:24:49.894Z,35.6
2018-11-20T23:26:50.030Z,35.0
2018-11-20T23:28:49.869Z,33.6
2018-11-20T23:30:49.782Z,35.0
2018-11-20T23:32:49.600Z,35.0
2018-11-20T23:34:49.939Z,34.2
2018-11-20T23:36:49.924Z,35.0
2018-11-20T23:38:49.789Z,34.9
2018-11-20T23:40:49.609Z,35.4
2018-11-20T23:42:50.433Z,35.4
2018-11-20T23:44:50.318Z,35.2
2018-11-20T23:46:50.361Z,35.3
2018-11-20T23:48:50.214Z,35.9
2018-11-20T23:50:49.994Z,35.9
2018-11-20T23:52:49.727Z,34.9
2018-11-20T23:54:49.557Z,35.7
2018-11-20T23:56:50.461Z,35.3
2018-11-20T23:58:50.305Z,35.3
